ADDS METAR Data INFO
IDs: Format: Raw Decoded Include TAF

Data at: 1811 UTC 18 Feb 2018

KUNI 181755Z AUTO 09004KT 10SM SCT025 04/M02 A3038 RMK AO2 P0001 60002 T00391017 10039 20005
KUNI 181735Z AUTO 16003KT 10SM OVC025 03/M01 A3039 RMK AO2 T00331015
KUNI 181715Z AUTO 16006KT 10SM OVC027 03/M02 A3040 RMK AO2 T00301017
KUNI 181655Z AUTO 16003KT 10SM OVC029 03/M02 A3040 RMK AO2 T00301020
KUNI 181635Z AUTO 22003KT 10SM OVC027 03/M02 A3041 RMK AO2 T00251023
KUNI 181615Z AUTO 18003KT 10SM OVC027 03/M02 A3040 RMK AO2 T00251025
KUNI 181555Z AUTO 19004KT 10SM OVC027 03/M02 A3039 RMK AO2 T00251023
KUNI 181535Z AUTO 00000KT 10SM OVC027 02/M03 A3039 RMK AO2 T00221027
KUNI 181515Z AUTO 00000KT 10SM OVC029 02/M02 A3039 RMK AO2 T00201019
KUNI 181455Z AUTO 00000KT 10SM OVC029 02/M01 A3039 RMK AO2 60001 T00191013
KUNI 181435Z AUTO 24003KT 10SM OVC029 02/00 A3037 RMK AO2 T00161005
KUNI 181415Z AUTO 26003KT 10SM OVC029 02/00 A3038 RMK AO2 T00151001
KUNI 181355Z AUTO 00000KT 10SM OVC029 01/00 A3037 RMK AO2 P0001 T00110000
KUNI 181335Z AUTO 00000KT 10SM OVC029 01/01 A3037 RMK AO2 T00070007
KUNI 181315Z AUTO 00000KT 10SM OVC029 01/01 A3037 RMK AO2 T00060006
KUNI 181255Z AUTO 00000KT 10SM OVC027 01/01 A3036 RMK AO2 T00050005
KUNI 181235Z AUTO 00000KT 10SM BKN022 OVC027 01/01 A3036 RMK AO2 T00070006
KUNI 181215Z AUTO 00000KT 10SM OVC022 01/00 A3035 RMK AO2 T00100003
KUNI 181155Z AUTO 00000KT 10SM OVC025 01/00 A3034 RMK AO2 60002 70016 T00100003 10020 20010
KUNI 181135Z AUTO 28004KT 10SM OVC027 01/00 A3033 RMK AO2 T00100002
KUNI 181115Z AUTO 26003KT 10SM OVC029 01/01 A3033 RMK AO2 T00100010
KUNI 181055Z AUTO 25003KT 10SM OVC031 01/01 A3031 RMK AO2 P0001 T00100010
KUNI 181035Z AUTO 26004KT 10SM OVC031 01/01 A3031 RMK AO2 P0001 T00100010
KUNI 181015Z AUTO 25004KT 10SM OVC033 01/01 A3030 RMK AO2 P0001 T00100010
KUNI 180955Z AUTO 23003KT 10SM OVC031 01/01 A3028 RMK AO2 T00100010
KUNI 180935Z AUTO 27003KT 10SM SCT021 OVC031 01/01 A3026 RMK AO2 T00130010
KUNI 180915Z AUTO 28004KT 10SM BKN021 OVC027 01/01 A3025 RMK AO2 T00130013
KUNI 180855Z AUTO 24005KT 10SM SCT016 BKN029 OVC034 01/01 A3024 RMK AO2 60001 T00110011
KUNI 180835Z AUTO 24005KT 10SM BKN016 OVC039 01/01 A3023 RMK AO2 T00130013
KUNI 180815Z AUTO 24004KT 10SM BKN017 OVC023 02/02 A3022 RMK AO2 T00150015
KUNI 180755Z AUTO 24005KT 10SM SCT014 BKN024 OVC041 02/02 A3021 RMK AO2 P0001 T00150015
KUNI 180735Z AUTO 23006KT 10SM SCT015 SCT021 OVC040 02/02 A3021 RMK AO2 P0001 T00160016
KUNI 180715Z AUTO 23007KT 10SM SCT012 SCT019 OVC036 02/02 A3019 RMK AO2 T00170017
KUNI 180655Z AUTO 25008G14KT 10SM SCT012 BKN018 OVC038 02/02 A3019 RMK AO2 T00160016
KUNI 180635Z AUTO 24007KT 10SM UP SCT014 BKN018 OVC024 02/02 A3017 RMK AO2 T00200020
KUNI 180615Z AUTO 27007G15KT 10SM BKN012 BKN017 OVC021 02/02 A3015 RMK AO2 T00180018
KUNI 180555Z AUTO 26011KT 10SM OVC010 02/02 A3014 RMK AO2 60003 T00150015 10015 20000
KUNI 180535Z AUTO 25010KT 10SM BKN006 OVC011 01/01 A3012 RMK AO2 T00140014
KUNI 180510Z AUTO 24008KT 7SM OVC006 01/01 A3011 RMK AO2 T00120012
KUNI 180455Z AUTO 23007KT 7SM OVC006 01/01 A3011 RMK AO2 P0001 T00110011
KUNI 180440Z AUTO 24008KT 7SM OVC006 01/01 A3010 RMK AO2 T00110011
KUNI 180415Z AUTO 23008KT 10SM OVC006 01/01 A3009 RMK AO2 T00110011
KUNI 180355Z AUTO 24006KT 10SM OVC006 01/01 A3008 RMK AO2 T00100010 400141013
KUNI 180335Z AUTO 23004KT 10SM OVC006 01/01 A3007 RMK AO2 T00100010
KUNI 180315Z AUTO 23005KT 10SM OVC006 01/01 A3007 RMK AO2 T00100010
KUNI 180255Z AUTO 22004KT 7SM BKN006 BKN014 OVC027 01/01 A3006 RMK AO2 P0001 60002 T00100010
KUNI 180235Z AUTO 24007KT 5SM BR BKN004 OVC014 01/01 A3007 RMK AO2 P0001 T00060006
KUNI 180215Z AUTO 25004KT 4SM UP BKN004 OVC014 01/01 A3006 RMK AO2 T00060006
KUNI 180155Z AUTO 00000KT 1 3/4SM BR OVC002 00/00 A3005 RMK AO2 T00030003
KUNI 180135Z AUTO 00000KT 2SM BR OVC002 00/00 A3004 RMK AO2 T00020002
KUNI 180115Z AUTO 25003KT 3SM BR BKN002 BKN012 OVC026 00/00 A3004 RMK AO2 T00030003
KUNI 180055Z AUTO 00000KT 1 1/4SM UP SCT002 BKN015 OVC023 00/00 A3003 RMK AO2 P0001 T00000000
KUNI 180035Z AUTO 00000KT 1 1/4SM BR SCT004 BKN019 OVC023 00/00 A3004 RMK AO2 P0001 T00000000
KUNI 180015Z AUTO 00000KT 1 1/2SM BR SCT004 BKN017 OVC024 00/00 A3004 RMK AO2 P0001 T00010001
KUNI 172355Z AUTO 00000KT 1 1/2SM UP BKN004 OVC015 00/00 A3003 RMK AO2 60003 T00000000 10013 20000
KUNI 172335Z AUTO 00000KT 2 1/2SM -SN OVC004 00/00 A3003 RMK AO2 T00010001
KUNI 172315Z AUTO 00000KT 3SM -SN OVC004 00/00 A3002 RMK AO2 T00020002
KUNI 172255Z AUTO 00000KT 7SM OVC004 00/00 A3002 RMK AO2 P0001 T00040004
KUNI 172235Z AUTO 00000KT 4SM -SN BKN004 BKN013 OVC022 00/00 A3000 RMK AO2 P0001 T00030003
KUNI 172215Z AUTO 14004KT 3SM -SN BKN004 BKN008 OVC022 00/00 A2999 RMK AO2 T00030003
KUNI 172155Z AUTO 00000KT 3SM -SN OVC004 00/00 A3001 RMK AO2 T00040004
KUNI 172135Z AUTO 00000KT 2 1/2SM -SN BKN004 OVC010 00/00 A3002 RMK AO2 T00030003
KUNI 172115Z AUTO 00000KT 1/4SM -SN OVC004 00/00 A3003 RMK AO2 T00000000
KUNI 172055Z AUTO 00000KT 1/2SM -SN OVC006 00/00 A3004 RMK AO2 P0001 60002 T00000000
KUNI 172035Z AUTO 00000KT 1/2SM SN OVC003 00/00 A3004 RMK AO2 T00010001
KUNI 172015Z AUTO 00000KT 3/4SM -SN OVC003 00/00 A3003 RMK AO2 T00030003
KUNI 171955Z AUTO 00000KT 3/4SM -SN OVC003 00/00 A3002 RMK AO2 P0001 T00020002
KUNI 171935Z AUTO 00000KT 3/4SM -SN OVC003 00/00 A3002 RMK AO2 P0001 T00010001
KUNI 171915Z AUTO 00000KT 3/4SM -SN OVC003 00/00 A3004 RMK AO2 P0001 T00000000
KUNI 171855Z AUTO 09003KT 1/4SM SN OVC005 00/00 A3006 RMK AO2 T00010001
KUNI 171835Z AUTO 00000KT 1/2SM SN OVC005 00/00 A3009 RMK AO2 T00030001
KUNI 171815Z AUTO 36004KT 7SM SCT019 BKN031 OVC065 01/M01 A3009 RMK AO2 T00121006
KUNI 171755Z AUTO 02003KT 10SM SCT046 BKN060 OVC070 01/M01 A3009 RMK AO2 P0001 60008 T00121009 10014 21013
KUNI 171735Z AUTO 00000KT 10SM OVC075 01/M01 A3012 RMK AO2 T00121011
KUNI 171715Z AUTO 00000KT 10SM BKN075 OVC090 01/M01 A3015 RMK AO2 T00141009
KUNI 171655Z AUTO 01003KT 10SM BKN100 OVC120 01/M01 A3017 RMK AO2 P0001 T00131012
KUNI 171635Z AUTO 01006KT 10SM SCT100 BKN120 01/M01 A3014 RMK AO2 P0001 T00121010
KUNI 171615Z AUTO 01004KT 10SM SCT100 BKN120 01/M01 A3013 RMK AO2 T00121012
KUNI 171555Z AUTO 06004KT 10SM SCT110 01/M01 A3013 RMK AO2 P0001 T00121012
KUNI 171535Z AUTO 07005KT 10SM SCT080 OVC100 01/M01 A3013 RMK AO2 P0001 T00101013
KUNI 171515Z AUTO 09004KT 10SM BKN080 OVC110 01/M02 A3015 RMK AO2 T00061019
KUNI 171455Z AUTO 07004KT 10SM OVC100 00/M02 A3018 RMK AO2 P0001 60005 T00041022
KUNI 171435Z AUTO 00000KT 10SM BKN110 00/M02 A3020 RMK AO2 T00011025
KUNI 171415Z AUTO 02003KT 10SM SCT120 00/M03 A3020 RMK AO2 T00001026
KUNI 171355Z AUTO 05005KT 10SM CLR 00/M03 A3018 RMK AO2 P0002 T00001026
KUNI 171335Z AUTO 06005KT 10SM CLR 00/M02 A3019 RMK AO2 P0001 T10051025
KUNI 171315Z AUTO 05004KT 10SM SCT036 M01/M02 A3021 RMK AO2 T10071021
KUNI 171255Z AUTO 00000KT 10SM SCT036 M01/M02 A3022 RMK AO2 P0002 T10111022
KUNI 171235Z AUTO 00000KT 10SM CLR M01/M03 A3022 RMK AO2 P0001 T10111026
KUNI 171215Z AUTO 00000KT 10SM CLR M01/M03 A3022 RMK AO2 P0001 T10111029
KUNI 171155Z AUTO 00000KT 10SM CLR M01/M03 A3023 RMK AO2 P0002 60012 70026 T10071029 10002 21007
KUNI 171135Z AUTO 00000KT 10SM SCT035 M01/M03 A3023 RMK AO2 P0001 T10061029
KUNI 171115Z AUTO 07003KT 10SM BKN035 00/M03 A3023 RMK AO2 T10031030
KUNI 171055Z AUTO 00000KT 10SM OVC035 00/M03 A3024 RMK AO2 P0003 T10011027
KUNI 171035Z AUTO 00000KT 10SM OVC035 00/M03 A3024 RMK AO2 P0002 T00001027
KUNI 171015Z AUTO 00000KT 10SM OVC035 00/M03 A3025 RMK AO2 P0001 T00001026
KUNI 170955Z AUTO 00000KT 10SM OVC035 00/M03 A3026 RMK AO2 P0002 T00011028
KUNI 170935Z AUTO 00000KT 10SM OVC035 00/M03 A3026 RMK AO2 P0001 T00021028
KUNI 170915Z AUTO 00000KT 10SM OVC033 00/M03 A3027 RMK AO2 T00011028
KUNI 170855Z AUTO 07005KT 10SM OVC033 00/M03 A3026 RMK AO2 P0001 60004 T00001028
KUNI 170835Z AUTO 07006KT 10SM OVC033 00/M02 A3027 RMK AO2 P0001 T00001023
KUNI 170815Z AUTO 00000KT 10SM OVC033 00/M02 A3028 RMK AO2 T00001023
KUNI 170755Z AUTO 00000KT 10SM OVC033 00/M02 A3029 RMK AO2 P0002 T00001025
KUNI 170735Z AUTO 00000KT 10SM OVC033 00/M03 A3029 RMK AO2 P0001 T00001026
KUNI 170715Z AUTO 00000KT 10SM OVC033 00/M02 A3029 RMK AO2 T00001024
KUNI 170655Z AUTO 00000KT 10SM OVC031 00/M03 A3029 RMK AO2 P0001 T00001030
KUNI 170635Z AUTO 00000KT 10SM OVC031 00/M03 A3029 RMK AO2 T00001032
KUNI 170615Z AUTO 00000KT 10SM OVC031 00/M03 A3029 RMK AO2 T00001034